Pagrindinis puslapis
METAR-TAF:

METAR-TAF

Oro uostai :

São Pedro da Aldeia, Rio de Janeiro, Brazilija

platuma: 22-49S, ilguma: 042-06W, Aukštis: 10 m

Dabartinis oras

Ataskaita buvo paskelbta 1 valandą ir 39 minutes, ne 20:00 UTC
Vėjas 8 kt iš Šiaurės Rytų, svyruoja nuo Šiaurės/Šiaurės Rytų ir Rytų
Temperatūra 24°C
Drėgmė 94%
Slėgis 1008 hPa
Matomumas: 9000 m
Išsisklaidę debesys ne aukštis 1100 ft
Su prošvaistėmis ne aukštis 2000 ft
Su prošvaistėmis ne aukštis 8000 ft
lietus

METAR: SBES 122000Z 05008KT 020V080 9000 -RA SCT011 BKN020 BKN080 24/23 Q1008

Laikas: 18:39 (21:39 UTC)


TAF: trūkstamas

Orai ataskaitas ir orų prognozės (METAR, TAF).

turimą stotys yra geltonos ir raudonos taškus žemėlapyje.

Perkelti pele per norėdami pamatyti stoties vardą.

Tada spustelėkite, norėdami matyti oro stebėjimo ir prognozės.

Norėdami pakeisti žemėlapį: spustelėkite ant žalios mygtukų su juodo kryžiaus žemyn,; žalią mygtuką su brūkšneliu, jei norite nutolinti; arba žalių rodyklių gretimoms žemėlapius.


METAR-TAF: